Aérodrome :
LOGIN :

S'inscrire | Disclaimer

   EN    FR    IT 

 










Légende :    VFR   VFR Marginal   IFR   IFR Intensif   IFR Très Intensif
Visi : 
Plafond : 
>= 8 km
>= 3000ft
5 à 8 km
1000 à 3000 ft
1500m à 5 km
500 à 1000 ft
800 à 1500m
200 à 500 ft
< 800m
< 200 ft
Symboles :   Orages  Brouillard  Fortes neiges  Fortes précipitations  Vent > 20 kt
SIGMETs :   Divers  Orages  Givrage  Turbulence  Onde Orograph.  Cendres Volcan.







- Altitude de l'aérodrome : 257 ft
- Code IATA : MAN
- Voir les cartes d'approche


EGCC - Manchester

DERNIER METAR :
  • 201820Z AUTO 27011KT 240V310 9999 BKN048 18/11 Q1011

METARs EXPIRÉS :
  • 201750Z AUTO 29011KT 9999 FEW036 SCT045 18/11 Q1010
  • 201720Z AUTO 28014KT 9999 FEW034 SCT041 18/10 Q1010
  • 201650Z 29012KT 9999 FEW036 SCT049 18/10 Q1010
  • 201620Z AUTO 28013KT 9999 SCT033 BKN049 18/11 Q1009
  • 201550Z AUTO 28013KT 9999 FEW029 SCT035 OVC042 18/11 Q1009

TAF TAF EGCC
Valide du 20 à 18h jusqu'au 22 à 00h UTC


201658Z 2018/2124 26012KT 9999 FEW030
BECMG 2103/2106 20005KT
PROB30 2103/2108 BKN014
PROB30
TEMPO 2109/2113 8000 -SHRA
BECMG 2112/2115 20015KT
BECMG 2120/2123 7000 RA
TEMPO 2120/2124 20018G28KT 4000 +SHRA BKN010
ATIS : +44 161 499 2324
Pas de NOTAMs connus pour ce terrain.



MET'MAP, la Météo Aéronautique d'un coup d'oeil ! - Copyright ORBIFLY Décembre 2007 - Disclaimer

ORBIFLY MET'MAP TEAM :

Programmation & Développement : Alexandra Zaïnal
Conception & Développement : Baudouin d'Aumeries
Co-Programmation & Développement : Marc-Olivier Méhu
Soutien technique & logistique : Manuel Goepfert

Contact : metmap@orbifly.com




SOURCES & CREDITS :

   NOAA